sensor_id;sensor_type;location;lat;lon;timestamp;temperature;humidity
22098;DHT22;11215;51.938;8.464;2022-12-29T00:02:09;13.00;71.90
22098;DHT22;11215;51.938;8.464;2022-12-29T00:04:34;13.00;72.00
22098;DHT22;11215;51.938;8.464;2022-12-29T00:07:00;13.00;71.90
22098;DHT22;11215;51.938;8.464;2022-12-29T00:09:27;13.00;72.00
22098;DHT22;11215;51.938;8.464;2022-12-29T00:11:52;13.10;72.00
22098;DHT22;11215;51.938;8.464;2022-12-29T00:14:19;13.10;72.00
22098;DHT22;11215;51.938;8.464;2022-12-29T00:17:03;13.10;72.00
22098;DHT22;11215;51.938;8.464;2022-12-29T00:19:29;13.10;72.50
22098;DHT22;11215;51.938;8.464;2022-12-29T00:22:14;13.10;72.20
22098;DHT22;11215;51.938;8.464;2022-12-29T00:24:59;13.10;72.00
22098;DHT22;11215;51.938;8.464;2022-12-29T00:27:31;13.10;72.00
22098;DHT22;11215;51.938;8.464;2022-12-29T00:30:20;13.10;72.00
22098;DHT22;11215;51.938;8.464;2022-12-29T00:33:16;13.10;72.30
22098;DHT22;11215;51.938;8.464;2022-12-29T00:36:04;13.20;72.10
22098;DHT22;11215;51.938;8.464;2022-12-29T00:38:33;13.20;72.10
22098;DHT22;11215;51.938;8.464;2022-12-29T00:41:19;13.20;72.20
22098;DHT22;11215;51.938;8.464;2022-12-29T00:44:03;13.20;72.10
22098;DHT22;11215;51.938;8.464;2022-12-29T00:46:37;13.20;72.10
22098;DHT22;11215;51.938;8.464;2022-12-29T00:49:05;13.20;72.20
22098;DHT22;11215;51.938;8.464;2022-12-29T00:51:50;13.20;72.20
22098;DHT22;11215;51.938;8.464;2022-12-29T00:54:16;13.20;72.10
22098;DHT22;11215;51.938;8.464;2022-12-29T00:56:42;13.20;72.10
22098;DHT22;11215;51.938;8.464;2022-12-29T00:59:09;13.20;72.20
22098;DHT22;11215;51.938;8.464;2022-12-29T01:01:36;13.20;72.20
22098;DHT22;11215;51.938;8.464;2022-12-29T01:04:03;13.20;72.20
22098;DHT22;11215;51.938;8.464;2022-12-29T01:06:29;13.20;72.20
22098;DHT22;11215;51.938;8.464;2022-12-29T01:08:54;13.20;72.20
22098;DHT22;11215;51.938;8.464;2022-12-29T01:11:39;13.20;72.20
22098;DHT22;11215;51.938;8.464;2022-12-29T01:14:05;13.20;72.20
22098;DHT22;11215;51.938;8.464;2022-12-29T01:16:31;13.20;72.20
22098;DHT22;11215;51.938;8.464;2022-12-29T01:18:57;13.20;72.20
22098;DHT22;11215;51.938;8.464;2022-12-29T01:21:23;13.20;72.20
22098;DHT22;11215;51.938;8.464;2022-12-29T01:23:49;13.20;72.20
22098;DHT22;11215;51.938;8.464;2022-12-29T01:26:16;13.30;72.30
22098;DHT22;11215;51.938;8.464;2022-12-29T01:28:43;13.30;72.40
22098;DHT22;11215;51.938;8.464;2022-12-29T01:31:09;13.20;72.40
22098;DHT22;11215;51.938;8.464;2022-12-29T01:33:35;13.20;72.40
22098;DHT22;11215;51.938;8.464;2022-12-29T01:36:06;13.30;72.60
22098;DHT22;11215;51.938;8.464;2022-12-29T01:38:36;13.30;72.80
22098;DHT22;11215;51.938;8.464;2022-12-29T01:41:03;13.30;72.80
22098;DHT22;11215;51.938;8.464;2022-12-29T01:43:48;13.30;72.80
22098;DHT22;11215;51.938;8.464;2022-12-29T01:51:36;13.30;73.00
22098;DHT22;11215;51.938;8.464;2022-12-29T01:54:15;13.30;72.90
22098;DHT22;11215;51.938;8.464;2022-12-29T01:56:43;13.30;73.00
22098;DHT22;11215;51.938;8.464;2022-12-29T01:59:15;13.30;72.90
22098;DHT22;11215;51.938;8.464;2022-12-29T02:01:42;13.30;73.10
22098;DHT22;11215;51.938;8.464;2022-12-29T02:04:09;13.30;73.00
22098;DHT22;11215;51.938;8.464;2022-12-29T02:07:08;13.30;73.20
22098;DHT22;11215;51.938;8.464;2022-12-29T02:09:32;13.30;73.50
22098;DHT22;11215;51.938;8.464;2022-12-29T02:11:58;13.30;73.20
22098;DHT22;11215;51.938;8.464;2022-12-29T02:14:24;13.30;73.40
22098;DHT22;11215;51.938;8.464;2022-12-29T02:28:53;13.30;74.30
22098;DHT22;11215;51.938;8.464;2022-12-29T02:31:45;13.30;73.70
22098;DHT22;11215;51.938;8.464;2022-12-29T02:34:28;13.30;74.00
22098;DHT22;11215;51.938;8.464;2022-12-29T02:37:17;13.30;74.10
22098;DHT22;11215;51.938;8.464;2022-12-29T02:40:01;13.30;74.10
22098;DHT22;11215;51.938;8.464;2022-12-29T02:42:35;13.30;74.30
22098;DHT22;11215;51.938;8.464;2022-12-29T02:45:39;13.30;74.00
22098;DHT22;11215;51.938;8.464;2022-12-29T02:48:30;13.30;74.30
22098;DHT22;11215;51.938;8.464;2022-12-29T02:51:19;13.30;74.30
22098;DHT22;11215;51.938;8.464;2022-12-29T02:53:46;13.30;74.30
22098;DHT22;11215;51.938;8.464;2022-12-29T02:56:30;13.30;73.90
22098;DHT22;11215;51.938;8.464;2022-12-29T02:58:56;13.40;74.00
22098;DHT22;11215;51.938;8.464;2022-12-29T03:01:23;13.40;74.00
22098;DHT22;11215;51.938;8.464;2022-12-29T03:04:07;13.40;74.10
22098;DHT22;11215;51.938;8.464;2022-12-29T03:18:12;13.50;73.80
22098;DHT22;11215;51.938;8.464;2022-12-29T03:20:39;13.60;73.80
22098;DHT22;11215;51.938;8.464;2022-12-29T03:23:07;13.60;73.60
22098;DHT22;11215;51.938;8.464;2022-12-29T03:25:40;13.60;73.50
22098;DHT22;11215;51.938;8.464;2022-12-29T03:28:12;13.60;73.50
22098;DHT22;11215;51.938;8.464;2022-12-29T03:30:40;13.70;73.50
22098;DHT22;11215;51.938;8.464;2022-12-29T03:33:09;13.70;73.40
22098;DHT22;11215;51.938;8.464;2022-12-29T03:35:39;13.70;73.30
22098;DHT22;11215;51.938;8.464;2022-12-29T03:40:56;13.70;73.20
22098;DHT22;11215;51.938;8.464;2022-12-29T03:43:24;13.70;73.00
22098;DHT22;11215;51.938;8.464;2022-12-29T03:45:50;13.70;73.00
22098;DHT22;11215;51.938;8.464;2022-12-29T03:48:15;13.80;72.90
22098;DHT22;11215;51.938;8.464;2022-12-29T03:50:41;13.80;72.90
22098;DHT22;11215;51.938;8.464;2022-12-29T03:53:07;13.80;72.80
22098;DHT22;11215;51.938;8.464;2022-12-29T03:55:32;13.80;72.70
22098;DHT22;11215;51.938;8.464;2022-12-29T03:57:58;13.80;72.60
22098;DHT22;11215;51.938;8.464;2022-12-29T04:00:24;13.80;72.60
22098;DHT22;11215;51.938;8.464;2022-12-29T04:02:49;13.80;72.50
22098;DHT22;11215;51.938;8.464;2022-12-29T04:05:15;13.80;72.40
22098;DHT22;11215;51.938;8.464;2022-12-29T04:07:41;13.90;72.30
22098;DHT22;11215;51.938;8.464;2022-12-29T04:10:06;13.90;72.30
22098;DHT22;11215;51.938;8.464;2022-12-29T04:12:33;13.90;72.20
22098;DHT22;11215;51.938;8.464;2022-12-29T04:14:59;13.90;72.10
22098;DHT22;11215;51.938;8.464;2022-12-29T04:17:30;13.90;72.10
22098;DHT22;11215;51.938;8.464;2022-12-29T04:19:56;13.90;71.70
22098;DHT22;11215;51.938;8.464;2022-12-29T04:22:42;13.90;71.90
22098;DHT22;11215;51.938;8.464;2022-12-29T04:25:07;13.90;71.80
22098;DHT22;11215;51.938;8.464;2022-12-29T04:27:33;13.90;71.80
22098;DHT22;11215;51.938;8.464;2022-12-29T04:29:59;14.00;71.70
22098;DHT22;11215;51.938;8.464;2022-12-29T04:32:24;14.00;71.60
22098;DHT22;11215;51.938;8.464;2022-12-29T04:34:50;14.00;71.50
22098;DHT22;11215;51.938;8.464;2022-12-29T04:37:15;14.00;71.50
22098;DHT22;11215;51.938;8.464;2022-12-29T04:39:41;14.00;71.40
22098;DHT22;11215;51.938;8.464;2022-12-29T04:42:07;14.00;71.30
22098;DHT22;11215;51.938;8.464;2022-12-29T04:44:32;14.00;71.20
22098;DHT22;11215;51.938;8.464;2022-12-29T04:46:58;14.00;71.30
22098;DHT22;11215;51.938;8.464;2022-12-29T04:49:23;14.00;71.30
22098;DHT22;11215;51.938;8.464;2022-12-29T04:51:49;14.00;71.40
22098;DHT22;11215;51.938;8.464;2022-12-29T04:54:21;14.00;71.30
22098;DHT22;11215;51.938;8.464;2022-12-29T04:56:46;14.00;71.20
22098;DHT22;11215;51.938;8.464;2022-12-29T04:59:12;14.00;71.30
22098;DHT22;11215;51.938;8.464;2022-12-29T05:01:37;14.00;71.30
22098;DHT22;11215;51.938;8.464;2022-12-29T05:04:03;14.00;71.30
22098;DHT22;11215;51.938;8.464;2022-12-29T05:06:29;14.00;71.30
22098;DHT22;11215;51.938;8.464;2022-12-29T05:08:54;14.00;71.30
22098;DHT22;11215;51.938;8.464;2022-12-29T05:11:20;14.00;71.30
22098;DHT22;11215;51.938;8.464;2022-12-29T05:13:46;14.00;71.40
22098;DHT22;11215;51.938;8.464;2022-12-29T05:16:12;14.00;71.40
22098;DHT22;11215;51.938;8.464;2022-12-29T05:18:38;14.00;71.40
22098;DHT22;11215;51.938;8.464;2022-12-29T05:21:03;14.00;71.40
22098;DHT22;11215;51.938;8.464;2022-12-29T05:23:29;14.00;71.40
22098;DHT22;11215;51.938;8.464;2022-12-29T05:25:55;14.00;71.50
22098;DHT22;11215;51.938;8.464;2022-12-29T05:28:20;14.00;71.40
22098;DHT22;11215;51.938;8.464;2022-12-29T05:30:50;14.00;71.50
22098;DHT22;11215;51.938;8.464;2022-12-29T05:33:16;14.00;71.50
22098;DHT22;11215;51.938;8.464;2022-12-29T05:35:42;14.00;71.50
22098;DHT22;11215;51.938;8.464;2022-12-29T05:38:08;14.00;71.50
22098;DHT22;11215;51.938;8.464;2022-12-29T05:40:34;14.00;71.50
22098;DHT22;11215;51.938;8.464;2022-12-29T05:43:00;14.00;72.40
22098;DHT22;11215;51.938;8.464;2022-12-29T05:45:26;14.00;71.50
22098;DHT22;11215;51.938;8.464;2022-12-29T05:47:51;14.00;71.50
22098;DHT22;11215;51.938;8.464;2022-12-29T05:50:17;14.00;71.60
22098;DHT22;11215;51.938;8.464;2022-12-29T05:52:42;14.00;71.50
22098;DHT22;11215;51.938;8.464;2022-12-29T05:55:08;14.00;71.50
22098;DHT22;11215;51.938;8.464;2022-12-29T05:57:34;14.00;71.50
22098;DHT22;11215;51.938;8.464;2022-12-29T05:59:59;14.00;71.50
22098;DHT22;11215;51.938;8.464;2022-12-29T06:02:25;14.00;71.50
22098;DHT22;11215;51.938;8.464;2022-12-29T06:04:51;14.00;71.50
22098;DHT22;11215;51.938;8.464;2022-12-29T06:07:16;14.00;71.50
22098;DHT22;11215;51.938;8.464;2022-12-29T06:09:42;14.00;71.50
22098;DHT22;11215;51.938;8.464;2022-12-29T06:12:07;14.00;71.40
22098;DHT22;11215;51.938;8.464;2022-12-29T06:14:33;14.10;71.40
22098;DHT22;11215;51.938;8.464;2022-12-29T06:16:59;14.00;71.30
22098;DHT22;11215;51.938;8.464;2022-12-29T06:19:25;14.10;71.40
22098;DHT22;11215;51.938;8.464;2022-12-29T06:21:51;14.10;71.30
22098;DHT22;11215;51.938;8.464;2022-12-29T06:24:18;14.10;71.30
22098;DHT22;11215;51.938;8.464;2022-12-29T06:26:43;14.10;71.20
22098;DHT22;11215;51.938;8.464;2022-12-29T06:29:12;14.10;71.10
22098;DHT22;11215;51.938;8.464;2022-12-29T06:31:44;14.10;71.10
22098;DHT22;11215;51.938;8.464;2022-12-29T06:34:14;14.10;71.00
22098;DHT22;11215;51.938;8.464;2022-12-29T06:36:40;14.10;70.90
22098;DHT22;11215;51.938;8.464;2022-12-29T06:39:06;14.20;70.90
22098;DHT22;11215;51.938;8.464;2022-12-29T06:41:31;14.20;70.70
22098;DHT22;11215;51.938;8.464;2022-12-29T06:43:57;14.20;70.70
22098;DHT22;11215;51.938;8.464;2022-12-29T06:46:23;14.30;70.50
22098;DHT22;11215;51.938;8.464;2022-12-29T06:48:52;14.30;70.50
22098;DHT22;11215;51.938;8.464;2022-12-29T06:51:17;14.30;70.10
22098;DHT22;11215;51.938;8.464;2022-12-29T06:53:43;14.30;70.10
22098;DHT22;11215;51.938;8.464;2022-12-29T06:56:09;14.30;70.00
22098;DHT22;11215;51.938;8.464;2022-12-29T06:58:34;14.20;70.00
22098;DHT22;11215;51.938;8.464;2022-12-29T07:01:00;14.20;70.80
22098;DHT22;11215;51.938;8.464;2022-12-29T07:03:25;14.10;70.00
22098;DHT22;11215;51.938;8.464;2022-12-29T07:05:51;14.10;70.00
22098;DHT22;11215;51.938;8.464;2022-12-29T07:08:17;14.10;70.20
22098;DHT22;11215;51.938;8.464;2022-12-29T07:10:42;14.00;70.20
22098;DHT22;11215;51.938;8.464;2022-12-29T07:13:08;14.00;70.20
22098;DHT22;11215;51.938;8.464;2022-12-29T07:15:35;14.00;70.20
22098;DHT22;11215;51.938;8.464;2022-12-29T07:18:01;14.00;70.30
22098;DHT22;11215;51.938;8.464;2022-12-29T07:20:28;14.00;70.20
22098;DHT22;11215;51.938;8.464;2022-12-29T07:22:54;14.00;70.20
22098;DHT22;11215;51.938;8.464;2022-12-29T07:25:19;14.00;70.40
22098;DHT22;11215;51.938;8.464;2022-12-29T07:27:48;14.00;70.60
22098;DHT22;11215;51.938;8.464;2022-12-29T07:30:14;14.00;70.60
22098;DHT22;11215;51.938;8.464;2022-12-29T07:32:40;14.10;70.80
22098;DHT22;11215;51.938;8.464;2022-12-29T07:35:06;14.10;70.80
22098;DHT22;11215;51.938;8.464;2022-12-29T07:37:31;14.00;70.80
22098;DHT22;11215;51.938;8.464;2022-12-29T07:39:57;14.00;70.80
22098;DHT22;11215;51.938;8.464;2022-12-29T07:42:23;14.00;70.80
22098;DHT22;11215;51.938;8.464;2022-12-29T07:44:48;13.90;70.70
22098;DHT22;11215;51.938;8.464;2022-12-29T07:47:14;13.90;70.70
22098;DHT22;11215;51.938;8.464;2022-12-29T07:49:39;13.90;70.80
22098;DHT22;11215;51.938;8.464;2022-12-29T07:52:05;13.80;70.80
22098;DHT22;11215;51.938;8.464;2022-12-29T07:54:31;13.80;70.90
22098;DHT22;11215;51.938;8.464;2022-12-29T07:56:56;13.80;71.00
22098;DHT22;11215;51.938;8.464;2022-12-29T07:59:25;13.70;71.20
22098;DHT22;11215;51.938;8.464;2022-12-29T08:01:51;13.70;71.20
22098;DHT22;11215;51.938;8.464;2022-12-29T08:04:16;13.70;71.30
22098;DHT22;11215;51.938;8.464;2022-12-29T08:06:42;13.60;71.20
22098;DHT22;11215;51.938;8.464;2022-12-29T08:09:08;13.60;71.40
22098;DHT22;11215;51.938;8.464;2022-12-29T08:11:34;13.60;71.40
22098;DHT22;11215;51.938;8.464;2022-12-29T08:13:59;13.60;71.50
22098;DHT22;11215;51.938;8.464;2022-12-29T08:16:25;13.60;71.50
22098;DHT22;11215;51.938;8.464;2022-12-29T08:18:50;13.60;71.60
22098;DHT22;11215;51.938;8.464;2022-12-29T08:21:19;13.60;72.60
22098;DHT22;11215;51.938;8.464;2022-12-29T08:23:48;13.50;71.80
22098;DHT22;11215;51.938;8.464;2022-12-29T08:26:13;13.60;71.90
22098;DHT22;11215;51.938;8.464;2022-12-29T08:28:39;13.50;71.90
22098;DHT22;11215;51.938;8.464;2022-12-29T08:31:04;13.50;72.00
22098;DHT22;11215;51.938;8.464;2022-12-29T08:33:30;13.50;72.10
22098;DHT22;11215;51.938;8.464;2022-12-29T08:36:03;13.50;72.30
22098;DHT22;11215;51.938;8.464;2022-12-29T08:38:30;13.50;72.30
22098;DHT22;11215;51.938;8.464;2022-12-29T08:40:57;13.50;72.20
22098;DHT22;11215;51.938;8.464;2022-12-29T08:43:23;13.50;72.20
22098;DHT22;11215;51.938;8.464;2022-12-29T08:45:49;13.50;72.20
22098;DHT22;11215;51.938;8.464;2022-12-29T08:48:14;13.50;72.30
22098;DHT22;11215;51.938;8.464;2022-12-29T08:50:44;13.50;72.40
22098;DHT22;11215;51.938;8.464;2022-12-29T08:53:09;13.50;72.40
22098;DHT22;11215;51.938;8.464;2022-12-29T08:55:35;13.50;72.40
22098;DHT22;11215;51.938;8.464;2022-12-29T08:58:01;13.50;72.50
22098;DHT22;11215;51.938;8.464;2022-12-29T09:00:26;13.50;72.50
22098;DHT22;11215;51.938;8.464;2022-12-29T09:02:52;13.50;72.60
22098;DHT22;11215;51.938;8.464;2022-12-29T09:05:18;13.50;72.70
22098;DHT22;11215;51.938;8.464;2022-12-29T09:07:43;13.50;72.70
22098;DHT22;11215;51.938;8.464;2022-12-29T09:10:09;13.40;72.80
22098;DHT22;11215;51.938;8.464;2022-12-29T09:12:35;13.40;72.60
22098;DHT22;11215;51.938;8.464;2022-12-29T09:15:01;13.40;72.50
22098;DHT22;11215;51.938;8.464;2022-12-29T09:17:26;13.40;72.50
22098;DHT22;11215;51.938;8.464;2022-12-29T09:20:15;13.40;72.50
22098;DHT22;11215;51.938;8.464;2022-12-29T09:22:42;13.40;72.70
22098;DHT22;11215;51.938;8.464;2022-12-29T09:25:08;13.40;72.80
22098;DHT22;11215;51.938;8.464;2022-12-29T09:27:35;13.40;72.80
22098;DHT22;11215;51.938;8.464;2022-12-29T09:30:02;13.40;72.90
22098;DHT22;11215;51.938;8.464;2022-12-29T09:32:28;13.40;72.80
22098;DHT22;11215;51.938;8.464;2022-12-29T09:34:55;13.40;72.70
22098;DHT22;11215;51.938;8.464;2022-12-29T09:37:21;13.40;72.50
22098;DHT22;11215;51.938;8.464;2022-12-29T09:39:47;13.40;72.20
22098;DHT22;11215;51.938;8.464;2022-12-29T09:42:22;13.40;72.10
22098;DHT22;11215;51.938;8.464;2022-12-29T09:47:28;13.50;71.60
22098;DHT22;11215;51.938;8.464;2022-12-29T09:50:09;13.50;71.30
22098;DHT22;11215;51.938;8.464;2022-12-29T09:52:48;13.50;70.80
22098;DHT22;11215;51.938;8.464;2022-12-29T09:55:19;13.50;71.00
